sensor_id;sensor_type;location;lat;lon;timestamp;temperature;humidity
29501;DHT22;16450;50.288;10.966;2022-10-23T00:02:17;10.60;99.90
29501;DHT22;16450;50.288;10.966;2022-10-23T00:05:19;10.60;99.90
29501;DHT22;16450;50.288;10.966;2022-10-23T00:08:20;10.50;99.90
29501;DHT22;16450;50.288;10.966;2022-10-23T00:11:23;10.50;99.90
29501;DHT22;16450;50.288;10.966;2022-10-23T00:14:24;10.50;99.90
29501;DHT22;16450;50.288;10.966;2022-10-23T00:17:24;10.40;99.90
29501;DHT22;16450;50.288;10.966;2022-10-23T00:20:25;10.40;99.90
29501;DHT22;16450;50.288;10.966;2022-10-23T00:23:26;10.40;99.90
29501;DHT22;16450;50.288;10.966;2022-10-23T00:26:27;10.30;99.90
29501;DHT22;16450;50.288;10.966;2022-10-23T00:29:27;10.30;99.90
29501;DHT22;16450;50.288;10.966;2022-10-23T00:32:28;10.30;99.90
29501;DHT22;16450;50.288;10.966;2022-10-23T00:35:29;10.30;99.90
29501;DHT22;16450;50.288;10.966;2022-10-23T00:38:29;10.30;99.90
29501;DHT22;16450;50.288;10.966;2022-10-23T00:41:30;10.20;99.90
29501;DHT22;16450;50.288;10.966;2022-10-23T00:47:32;10.20;99.90
29501;DHT22;16450;50.288;10.966;2022-10-23T00:50:33;10.10;99.90
29501;DHT22;16450;50.288;10.966;2022-10-23T00:53:33;10.10;99.90
29501;DHT22;16450;50.288;10.966;2022-10-23T00:56:37;10.10;99.90
29501;DHT22;16450;50.288;10.966;2022-10-23T00:59:39;10.10;99.90
29501;DHT22;16450;50.288;10.966;2022-10-23T01:02:39;10.00;99.90
29501;DHT22;16450;50.288;10.966;2022-10-23T01:09:17;10.00;99.90
29501;DHT22;16450;50.288;10.966;2022-10-23T01:15:38;9.90;99.90
29501;DHT22;16450;50.288;10.966;2022-10-23T01:19:00;9.90;99.90
29501;DHT22;16450;50.288;10.966;2022-10-23T01:28:52;9.80;99.90
29501;DHT22;16450;50.288;10.966;2022-10-23T01:32:08;9.80;99.90
29501;DHT22;16450;50.288;10.966;2022-10-23T01:35:17;9.70;99.90
29501;DHT22;16450;50.288;10.966;2022-10-23T01:38:47;9.70;99.90
29501;DHT22;16450;50.288;10.966;2022-10-23T01:41:55;9.70;99.90
29501;DHT22;16450;50.288;10.966;2022-10-23T01:45:01;9.70;99.90
29501;DHT22;16450;50.288;10.966;2022-10-23T01:48:03;9.70;99.90
29501;DHT22;16450;50.288;10.966;2022-10-23T01:51:07;9.60;99.90
29501;DHT22;16450;50.288;10.966;2022-10-23T01:54:11;9.60;99.90
29501;DHT22;16450;50.288;10.966;2022-10-23T01:57:15;9.50;99.90
29501;DHT22;16450;50.288;10.966;2022-10-23T02:00:17;9.50;99.90
29501;DHT22;16450;50.288;10.966;2022-10-23T02:03:19;9.50;99.90
29501;DHT22;16450;50.288;10.966;2022-10-23T02:06:20;9.50;99.90
29501;DHT22;16450;50.288;10.966;2022-10-23T02:09:21;9.40;99.90
29501;DHT22;16450;50.288;10.966;2022-10-23T02:22:33;9.40;99.90
29501;DHT22;16450;50.288;10.966;2022-10-23T02:25:40;9.30;99.90
29501;DHT22;16450;50.288;10.966;2022-10-23T02:28:51;9.30;99.90
29501;DHT22;16450;50.288;10.966;2022-10-23T02:31:53;9.30;99.90
29501;DHT22;16450;50.288;10.966;2022-10-23T02:34:54;9.30;99.90
29501;DHT22;16450;50.288;10.966;2022-10-23T02:37:57;9.30;99.90
29501;DHT22;16450;50.288;10.966;2022-10-23T02:41:18;9.30;99.90
29501;DHT22;16450;50.288;10.966;2022-10-23T02:47:32;9.20;99.90
29501;DHT22;16450;50.288;10.966;2022-10-23T02:50:48;9.20;99.90
29501;DHT22;16450;50.288;10.966;2022-10-23T02:54:07;9.20;99.90
29501;DHT22;16450;50.288;10.966;2022-10-23T02:57:34;9.20;99.90
29501;DHT22;16450;50.288;10.966;2022-10-23T03:00:39;9.20;99.90
29501;DHT22;16450;50.288;10.966;2022-10-23T03:03:47;9.20;99.90
29501;DHT22;16450;50.288;10.966;2022-10-23T03:06:49;9.20;99.90
29501;DHT22;16450;50.288;10.966;2022-10-23T03:09:50;9.20;99.90
29501;DHT22;16450;50.288;10.966;2022-10-23T03:12:50;9.20;99.90
29501;DHT22;16450;50.288;10.966;2022-10-23T03:15:51;9.10;99.90
29501;DHT22;16450;50.288;10.966;2022-10-23T03:18:52;9.10;99.90
29501;DHT22;16450;50.288;10.966;2022-10-23T03:21:52;9.00;99.90
29501;DHT22;16450;50.288;10.966;2022-10-23T03:24:53;9.00;99.90
29501;DHT22;16450;50.288;10.966;2022-10-23T03:27:53;9.10;99.90
29501;DHT22;16450;50.288;10.966;2022-10-23T03:30:54;9.00;99.90
29501;DHT22;16450;50.288;10.966;2022-10-23T03:33:55;9.00;99.90
29501;DHT22;16450;50.288;10.966;2022-10-23T03:36:56;9.00;99.90
29501;DHT22;16450;50.288;10.966;2022-10-23T03:39:56;9.00;99.90
29501;DHT22;16450;50.288;10.966;2022-10-23T03:42:57;9.00;99.90
29501;DHT22;16450;50.288;10.966;2022-10-23T03:45:58;8.90;99.90
29501;DHT22;16450;50.288;10.966;2022-10-23T03:48:58;8.90;99.90
29501;DHT22;16450;50.288;10.966;2022-10-23T03:51:59;8.90;99.90
29501;DHT22;16450;50.288;10.966;2022-10-23T03:55:00;8.90;99.90
29501;DHT22;16450;50.288;10.966;2022-10-23T03:58:01;8.80;99.90
29501;DHT22;16450;50.288;10.966;2022-10-23T04:01:01;8.80;99.90
29501;DHT22;16450;50.288;10.966;2022-10-23T04:04:02;8.80;99.90
29501;DHT22;16450;50.288;10.966;2022-10-23T04:07:02;8.80;99.90
29501;DHT22;16450;50.288;10.966;2022-10-23T04:10:04;8.70;99.90
29501;DHT22;16450;50.288;10.966;2022-10-23T04:13:05;8.70;99.90
29501;DHT22;16450;50.288;10.966;2022-10-23T04:16:06;8.70;99.90
29501;DHT22;16450;50.288;10.966;2022-10-23T04:19:06;8.70;99.90
29501;DHT22;16450;50.288;10.966;2022-10-23T04:22:07;8.70;99.90
29501;DHT22;16450;50.288;10.966;2022-10-23T04:25:08;8.70;99.90
29501;DHT22;16450;50.288;10.966;2022-10-23T04:28:09;8.70;99.90
29501;DHT22;16450;50.288;10.966;2022-10-23T04:31:09;8.70;99.90
29501;DHT22;16450;50.288;10.966;2022-10-23T04:34:10;8.70;99.90
29501;DHT22;16450;50.288;10.966;2022-10-23T04:37:10;8.70;99.90
29501;DHT22;16450;50.288;10.966;2022-10-23T04:40:11;8.70;99.90
29501;DHT22;16450;50.288;10.966;2022-10-23T04:43:11;8.70;99.90
29501;DHT22;16450;50.288;10.966;2022-10-23T04:46:12;8.70;99.90
29501;DHT22;16450;50.288;10.966;2022-10-23T04:49:13;8.70;99.90
29501;DHT22;16450;50.288;10.966;2022-10-23T04:52:13;8.80;99.90
29501;DHT22;16450;50.288;10.966;2022-10-23T04:55:14;8.80;99.90
29501;DHT22;16450;50.288;10.966;2022-10-23T04:58:15;8.80;99.90
29501;DHT22;16450;50.288;10.966;2022-10-23T05:01:15;8.80;99.90
29501;DHT22;16450;50.288;10.966;2022-10-23T05:04:16;8.80;99.90
29501;DHT22;16450;50.288;10.966;2022-10-23T05:07:16;8.80;99.90
29501;DHT22;16450;50.288;10.966;2022-10-23T05:10:17;8.80;99.90
29501;DHT22;16450;50.288;10.966;2022-10-23T05:13:18;8.80;99.90
29501;DHT22;16450;50.288;10.966;2022-10-23T05:16:31;8.80;99.90
29501;DHT22;16450;50.288;10.966;2022-10-23T05:19:41;8.80;99.90
29501;DHT22;16450;50.288;10.966;2022-10-23T05:22:43;8.80;99.90
29501;DHT22;16450;50.288;10.966;2022-10-23T05:25:45;8.80;99.90
29501;DHT22;16450;50.288;10.966;2022-10-23T05:28:46;8.80;99.90
29501;DHT22;16450;50.288;10.966;2022-10-23T05:31:48;8.80;99.90
29501;DHT22;16450;50.288;10.966;2022-10-23T05:34:50;8.70;99.90
29501;DHT22;16450;50.288;10.966;2022-10-23T05:37:51;8.70;99.90
29501;DHT22;16450;50.288;10.966;2022-10-23T05:40:53;8.80;99.90
29501;DHT22;16450;50.288;10.966;2022-10-23T05:43:54;8.80;99.90
29501;DHT22;16450;50.288;10.966;2022-10-23T05:46:54;8.80;99.90
29501;DHT22;16450;50.288;10.966;2022-10-23T05:49:55;8.90;99.90
29501;DHT22;16450;50.288;10.966;2022-10-23T05:52:55;8.90;99.90
29501;DHT22;16450;50.288;10.966;2022-10-23T05:56:02;9.00;99.90
29501;DHT22;16450;50.288;10.966;2022-10-23T05:59:03;9.00;99.90
29501;DHT22;16450;50.288;10.966;2022-10-23T06:02:03;9.10;99.90
29501;DHT22;16450;50.288;10.966;2022-10-23T06:05:04;9.20;99.90
29501;DHT22;16450;50.288;10.966;2022-10-23T06:08:05;9.20;99.90
29501;DHT22;16450;50.288;10.966;2022-10-23T06:11:10;9.30;99.90
29501;DHT22;16450;50.288;10.966;2022-10-23T06:14:11;9.30;99.90
29501;DHT22;16450;50.288;10.966;2022-10-23T06:17:11;9.40;99.90
29501;DHT22;16450;50.288;10.966;2022-10-23T06:20:12;9.40;99.90
29501;DHT22;16450;50.288;10.966;2022-10-23T06:23:13;9.40;99.90
29501;DHT22;16450;50.288;10.966;2022-10-23T06:26:15;9.50;99.90
29501;DHT22;16450;50.288;10.966;2022-10-23T06:29:16;9.50;99.90
29501;DHT22;16450;50.288;10.966;2022-10-23T06:32:17;9.60;99.90
29501;DHT22;16450;50.288;10.966;2022-10-23T06:35:18;9.60;99.90
29501;DHT22;16450;50.288;10.966;2022-10-23T06:38:19;9.70;99.90
29501;DHT22;16450;50.288;10.966;2022-10-23T06:41:20;9.70;99.90
29501;DHT22;16450;50.288;10.966;2022-10-23T06:44:21;9.70;99.90
29501;DHT22;16450;50.288;10.966;2022-10-23T06:47:21;9.80;99.90
29501;DHT22;16450;50.288;10.966;2022-10-23T06:50:22;9.90;99.90
29501;DHT22;16450;50.288;10.966;2022-10-23T06:53:24;9.80;99.90
29501;DHT22;16450;50.288;10.966;2022-10-23T06:56:25;9.90;99.90
29501;DHT22;16450;50.288;10.966;2022-10-23T06:59:28;9.90;99.90
29501;DHT22;16450;50.288;10.966;2022-10-23T07:02:29;10.00;99.90
29501;DHT22;16450;50.288;10.966;2022-10-23T07:05:29;10.00;99.90
29501;DHT22;16450;50.288;10.966;2022-10-23T07:08:30;10.00;99.90
29501;DHT22;16450;50.288;10.966;2022-10-23T07:11:31;10.10;99.90
29501;DHT22;16450;50.288;10.966;2022-10-23T07:14:32;10.10;99.90
29501;DHT22;16450;50.288;10.966;2022-10-23T07:17:32;10.10;99.90
29501;DHT22;16450;50.288;10.966;2022-10-23T07:20:33;10.20;99.90
29501;DHT22;16450;50.288;10.966;2022-10-23T07:23:34;10.20;99.90
29501;DHT22;16450;50.288;10.966;2022-10-23T07:26:35;10.30;99.90
29501;DHT22;16450;50.288;10.966;2022-10-23T07:29:35;10.30;99.90
29501;DHT22;16450;50.288;10.966;2022-10-23T07:32:36;10.40;99.90
29501;DHT22;16450;50.288;10.966;2022-10-23T07:35:40;10.40;99.90
29501;DHT22;16450;50.288;10.966;2022-10-23T07:38:41;10.40;99.90
29501;DHT22;16450;50.288;10.966;2022-10-23T07:41:41;10.50;99.90
29501;DHT22;16450;50.288;10.966;2022-10-23T07:44:42;10.50;99.90
29501;DHT22;16450;50.288;10.966;2022-10-23T07:47:42;10.60;99.90
29501;DHT22;16450;50.288;10.966;2022-10-23T07:50:43;10.60;99.90
29501;DHT22;16450;50.288;10.966;2022-10-23T07:53:44;10.70;99.90
29501;DHT22;16450;50.288;10.966;2022-10-23T07:56:45;10.70;99.90
29501;DHT22;16450;50.288;10.966;2022-10-23T07:59:46;10.80;99.90
29501;DHT22;16450;50.288;10.966;2022-10-23T08:02:47;10.90;99.90
29501;DHT22;16450;50.288;10.966;2022-10-23T08:05:47;10.90;99.90
29501;DHT22;16450;50.288;10.966;2022-10-23T08:08:48;11.00;99.90
29501;DHT22;16450;50.288;10.966;2022-10-23T08:11:48;11.00;99.90
29501;DHT22;16450;50.288;10.966;2022-10-23T08:14:49;11.10;99.90
29501;DHT22;16450;50.288;10.966;2022-10-23T08:17:49;11.20;99.90
29501;DHT22;16450;50.288;10.966;2022-10-23T08:20:50;11.20;99.90
29501;DHT22;16450;50.288;10.966;2022-10-23T08:23:53;11.30;99.90
29501;DHT22;16450;50.288;10.966;2022-10-23T08:26:54;11.30;99.90
29501;DHT22;16450;50.288;10.966;2022-10-23T08:29:55;11.40;99.90
29501;DHT22;16450;50.288;10.966;2022-10-23T08:32:55;11.40;99.90
29501;DHT22;16450;50.288;10.966;2022-10-23T08:35:56;11.50;99.90
29501;DHT22;16450;50.288;10.966;2022-10-23T08:38:57;11.60;99.90
29501;DHT22;16450;50.288;10.966;2022-10-23T08:41:58;11.60;99.90
29501;DHT22;16450;50.288;10.966;2022-10-23T08:45:05;11.70;99.90
29501;DHT22;16450;50.288;10.966;2022-10-23T08:48:34;11.80;99.90
29501;DHT22;16450;50.288;10.966;2022-10-23T08:51:41;11.80;99.90
29501;DHT22;16450;50.288;10.966;2022-10-23T08:55:14;11.90;99.90
29501;DHT22;16450;50.288;10.966;2022-10-23T08:58:26;12.00;99.90
29501;DHT22;16450;50.288;10.966;2022-10-23T09:01:46;12.00;99.90
29501;DHT22;16450;50.288;10.966;2022-10-23T09:04:50;12.20;99.90
29501;DHT22;16450;50.288;10.966;2022-10-23T09:17:54;12.70;99.90
29501;DHT22;16450;50.288;10.966;2022-10-23T09:20:56;12.90;99.90
29501;DHT22;16450;50.288;10.966;2022-10-23T09:23:57;13.10;99.90
29501;DHT22;16450;50.288;10.966;2022-10-23T09:26:59;13.30;99.90
29501;DHT22;16450;50.288;10.966;2022-10-23T09:30:03;13.50;99.90
29501;DHT22;16450;50.288;10.966;2022-10-23T09:33:20;13.60;99.90
29501;DHT22;16450;50.288;10.966;2022-10-23T09:36:22;13.70;99.90
29501;DHT22;16450;50.288;10.966;2022-10-23T09:39:33;13.80;99.90
29501;DHT22;16450;50.288;10.966;2022-10-23T09:42:34;14.00;99.90
29501;DHT22;16450;50.288;10.966;2022-10-23T09:45:37;14.20;99.90
29501;DHT22;16450;50.288;10.966;2022-10-23T09:48:41;14.30;99.90
29501;DHT22;16450;50.288;10.966;2022-10-23T09:55:34;14.60;99.90
29501;DHT22;16450;50.288;10.966;2022-10-23T09:58:38;14.70;99.90
29501;DHT22;16450;50.288;10.966;2022-10-23T10:02:18;14.80;99.90
29501;DHT22;16450;50.288;10.966;2022-10-23T10:08:39;14.90;99.90
29501;DHT22;16450;50.288;10.966;2022-10-23T10:18:38;14.90;99.90
29501;DHT22;16450;50.288;10.966;2022-10-23T10:21:50;14.90;99.90
29501;DHT22;16450;50.288;10.966;2022-10-23T10:25:16;14.90;99.90
29501;DHT22;16450;50.288;10.966;2022-10-23T10:28:45;14.80;99.90
29501;DHT22;16450;50.288;10.966;2022-10-23T10:38:51;14.70;99.90
29501;DHT22;16450;50.288;10.966;2022-10-23T10:45:05;14.60;99.90
29501;DHT22;16450;50.288;10.966;2022-10-23T10:48:22;14.60;99.90
29501;DHT22;16450;50.288;10.966;2022-10-23T10:51:28;14.60;99.90
29501;DHT22;16450;50.288;10.966;2022-10-23T10:57:49;14.70;99.90
29501;DHT22;16450;50.288;10.966;2022-10-23T11:00:59;14.70;99.90
29501;DHT22;16450;50.288;10.966;2022-10-23T11:07:31;14.80;99.90
29501;DHT22;16450;50.288;10.966;2022-10-23T11:10:34;14.80;99.90
29501;DHT22;16450;50.288;10.966;2022-10-23T11:13:42;14.80;99.90
29501;DHT22;16450;50.288;10.966;2022-10-23T11:18:03;14.90;99.90
29501;DHT22;16450;50.288;10.966;2022-10-23T11:20:53;14.90;99.90
29501;DHT22;16450;50.288;10.966;2022-10-23T11:37:20;15.30;99.90
29501;DHT22;16450;50.288;10.966;2022-10-23T11:40:23;15.40;99.90
29501;DHT22;16450;50.288;10.966;2022-10-23T11:43:28;15.50;99.90
29501;DHT22;16450;50.288;10.966;2022-10-23T11:46:35;15.60;99.90
29501;DHT22;16450;50.288;10.966;2022-10-23T11:49:36;15.60;99.90
29501;DHT22;16450;50.288;10.966;2022-10-23T11:52:56;15.70;99.90
29501;DHT22;16450;50.288;10.966;2022-10-23T11:59:33;15.90;99.90
29501;DHT22;16450;50.288;10.966;2022-10-23T12:02:36;16.00;99.90
29501;DHT22;16450;50.288;10.966;2022-10-23T12:05:39;16.00;99.90
29501;DHT22;16450;50.288;10.966;2022-10-23T12:08:43;16.10;99.90
29501;DHT22;16450;50.288;10.966;2022-10-23T12:18:15;16.20;99.90
29501;DHT22;16450;50.288;10.966;2022-10-23T12:21:19;16.30;99.90
29501;DHT22;16450;50.288;10.966;2022-10-23T12:41:00;16.60;99.90
29501;DHT22;16450;50.288;10.966;2022-10-23T12:44:04;16.60;99.90
29501;DHT22;16450;50.288;10.966;2022-10-23T12:47:15;16.50;99.90
29501;DHT22;16450;50.288;10.966;2022-10-23T12:53:23;16.50;99.90
29501;DHT22;16450;50.288;10.966;2022-10-23T12:56:25;16.40;99.90
29501;DHT22;16450;50.288;10.966;2022-10-23T12:59:35;16.40;99.90
29501;DHT22;16450;50.288;10.966;2022-10-23T13:02:36;16.30;99.90
29501;DHT22;16450;50.288;10.966;2022-10-23T13:05:37;16.30;99.90
29501;DHT22;16450;50.288;10.966;2022-10-23T13:08:46;16.30;99.90
29501;DHT22;16450;50.288;10.966;2022-10-23T13:11:48;16.30;99.90
29501;DHT22;16450;50.288;10.966;2022-10-23T13:15:13;16.20;99.90
29501;DHT22;16450;50.288;10.966;2022-10-23T13:18:17;16.20;99.90
29501;DHT22;16450;50.288;10.966;2022-10-23T13:21:26;16.20;99.90
29501;DHT22;16450;50.288;10.966;2022-10-23T13:24:29;16.30;99.90
29501;DHT22;16450;50.288;10.966;2022-10-23T13:27:31;16.30;99.90
29501;DHT22;16450;50.288;10.966;2022-10-23T13:30:35;16.30;99.90
29501;DHT22;16450;50.288;10.966;2022-10-23T13:33:42;16.30;99.90
29501;DHT22;16450;50.288;10.966;2022-10-23T13:36:59;16.30;99.90
29501;DHT22;16450;50.288;10.966;2022-10-23T13:40:06;16.30;99.90
29501;DHT22;16450;50.288;10.966;2022-10-23T13:43:24;16.30;99.90
29501;DHT22;16450;50.288;10.966;2022-10-23T13:46:25;16.30;99.90
29501;DHT22;16450;50.288;10.966;2022-10-23T13:49:26;16.30;99.90
29501;DHT22;16450;50.288;10.966;2022-10-23T13:52:27;16.30;99.90
29501;DHT22;16450;50.288;10.966;2022-10-23T13:55:27;16.30;99.90
29501;DHT22;16450;50.288;10.966;2022-10-23T13:58:28;16.30;99.90
29501;DHT22;16450;50.288;10.966;2022-10-23T14:01:32;16.40;99.90
29501;DHT22;16450;50.288;10.966;2022-10-23T14:04:33;16.40;99.90
29501;DHT22;16450;50.288;10.966;2022-10-23T14:07:33;16.40;99.90
29501;DHT22;16450;50.288;10.966;2022-10-23T14:10:34;16.40;99.90
29501;DHT22;16450;50.288;10.966;2022-10-23T14:13:34;16.40;99.90
29501;DHT22;16450;50.288;10.966;2022-10-23T14:16:35;16.40;99.90
29501;DHT22;16450;50.288;10.966;2022-10-23T14:19:36;16.40;99.90
29501;DHT22;16450;50.288;10.966;2022-10-23T14:22:36;16.30;99.90
29501;DHT22;16450;50.288;10.966;2022-10-23T14:25:37;16.20;99.90
29501;DHT22;16450;50.288;10.966;2022-10-23T14:28:38;16.30;99.90
29501;DHT22;16450;50.288;10.966;2022-10-23T14:31:39;16.30;99.90
29501;DHT22;16450;50.288;10.966;2022-10-23T14:34:41;16.40;99.90
29501;DHT22;16450;50.288;10.966;2022-10-23T14:37:42;16.40;99.90
29501;DHT22;16450;50.288;10.966;2022-10-23T14:40:43;16.40;99.90
29501;DHT22;16450;50.288;10.966;2022-10-23T14:43:44;16.30;99.90
29501;DHT22;16450;50.288;10.966;2022-10-23T14:46:44;16.50;99.90
29501;DHT22;16450;50.288;10.966;2022-10-23T14:49:47;16.40;99.90
29501;DHT22;16450;50.288;10.966;2022-10-23T14:52:51;16.50;99.90
29501;DHT22;16450;50.288;10.966;2022-10-23T14:55:51;16.50;99.90
29501;DHT22;16450;50.288;10.966;2022-10-23T14:58:52;16.40;99.90
29501;DHT22;16450;50.288;10.966;2022-10-23T15:01:53;16.40;99.90
29501;DHT22;16450;50.288;10.966;2022-10-23T15:04:53;16.40;99.90
29501;DHT22;16450;50.288;10.966;2022-10-23T15:07:54;16.40;99.90
29501;DHT22;16450;50.288;10.966;2022-10-23T15:10:59;16.30;99.90
29501;DHT22;16450;50.288;10.966;2022-10-23T15:14:00;16.30;99.90
29501;DHT22;16450;50.288;10.966;2022-10-23T15:17:01;16.30;99.90
29501;DHT22;16450;50.288;10.966;2022-10-23T15:20:02;16.30;99.90
29501;DHT22;16450;50.288;10.966;2022-10-23T15:23:03;16.20;99.90
29501;DHT22;16450;50.288;10.966;2022-10-23T15:26:06;16.10;99.90
29501;DHT22;16450;50.288;10.966;2022-10-23T15:29:07;16.10;99.90
29501;DHT22;16450;50.288;10.966;2022-10-23T15:32:09;16.00;99.90
29501;DHT22;16450;50.288;10.966;2022-10-23T15:35:10;15.90;99.90
29501;DHT22;16450;50.288;10.966;2022-10-23T15:38:11;15.90;99.90
29501;DHT22;16450;50.288;10.966;2022-10-23T15:41:31;15.80;99.90
29501;DHT22;16450;50.288;10.966;2022-10-23T15:44:32;15.70;99.90
29501;DHT22;16450;50.288;10.966;2022-10-23T15:47:33;15.60;99.90
29501;DHT22;16450;50.288;10.966;2022-10-23T15:50:35;15.50;99.90
29501;DHT22;16450;50.288;10.966;2022-10-23T15:53:35;15.40;99.90
29501;DHT22;16450;50.288;10.966;2022-10-23T15:56:36;15.40;99.90
29501;DHT22;16450;50.288;10.966;2022-10-23T15:59:36;15.40;99.90
29501;DHT22;16450;50.288;10.966;2022-10-23T16:02:37;15.20;99.90
29501;DHT22;16450;50.288;10.966;2022-10-23T16:05:38;15.20;99.90
29501;DHT22;16450;50.288;10.966;2022-10-23T16:08:39;15.10;99.90
29501;DHT22;16450;50.288;10.966;2022-10-23T16:11:41;15.10;99.90
29501;DHT22;16450;50.288;10.966;2022-10-23T16:14:42;15.00;99.90
29501;DHT22;16450;50.288;10.966;2022-10-23T16:17:42;14.90;99.90
29501;DHT22;16450;50.288;10.966;2022-10-23T16:20:43;14.90;99.90
29501;DHT22;16450;50.288;10.966;2022-10-23T16:23:44;14.90;99.90
29501;DHT22;16450;50.288;10.966;2022-10-23T16:26:45;14.90;99.90
29501;DHT22;16450;50.288;10.966;2022-10-23T16:29:49;14.80;99.90
29501;DHT22;16450;50.288;10.966;2022-10-23T16:32:50;14.80;99.90
29501;DHT22;16450;50.288;10.966;2022-10-23T16:35:51;14.80;99.90
29501;DHT22;16450;50.288;10.966;2022-10-23T16:38:52;14.80;99.90
29501;DHT22;16450;50.288;10.966;2022-10-23T16:41:53;14.80;99.90
29501;DHT22;16450;50.288;10.966;2022-10-23T16:44:53;14.80;99.90
29501;DHT22;16450;50.288;10.966;2022-10-23T16:47:56;14.80;99.90
29501;DHT22;16450;50.288;10.966;2022-10-23T16:50:56;14.80;99.90
29501;DHT22;16450;50.288;10.966;2022-10-23T16:53:57;14.80;99.90
29501;DHT22;16450;50.288;10.966;2022-10-23T16:56:58;14.80;99.90
29501;DHT22;16450;50.288;10.966;2022-10-23T16:59:58;14.80;99.90
29501;DHT22;16450;50.288;10.966;2022-10-23T17:03:01;14.80;99.90
29501;DHT22;16450;50.288;10.966;2022-10-23T17:06:07;14.80;99.90
29501;DHT22;16450;50.288;10.966;2022-10-23T17:09:08;14.80;99.90
29501;DHT22;16450;50.288;10.966;2022-10-23T17:12:09;14.80;99.90
29501;DHT22;16450;50.288;10.966;2022-10-23T17:15:10;14.80;99.90
29501;DHT22;16450;50.288;10.966;2022-10-23T17:18:10;14.80;99.90
29501;DHT22;16450;50.288;10.966;2022-10-23T17:21:12;14.80;99.90
29501;DHT22;16450;50.288;10.966;2022-10-23T17:24:13;14.80;99.90
29501;DHT22;16450;50.288;10.966;2022-10-23T17:27:14;14.80;99.90
29501;DHT22;16450;50.288;10.966;2022-10-23T17:30:15;14.80;99.90
29501;DHT22;16450;50.288;10.966;2022-10-23T17:33:16;14.80;99.90
29501;DHT22;16450;50.288;10.966;2022-10-23T17:36:17;14.80;99.90
29501;DHT22;16450;50.288;10.966;2022-10-23T17:39:22;14.80;99.90
29501;DHT22;16450;50.288;10.966;2022-10-23T17:42:22;14.80;99.90
29501;DHT22;16450;50.288;10.966;2022-10-23T17:45:23;14.80;99.90
29501;DHT22;16450;50.288;10.966;2022-10-23T17:48:24;14.80;99.90
29501;DHT22;16450;50.288;10.966;2022-10-23T17:51:26;14.70;99.90
29501;DHT22;16450;50.288;10.966;2022-10-23T17:54:27;14.80;99.90
29501;DHT22;16450;50.288;10.966;2022-10-23T17:57:28;14.70;99.90
29501;DHT22;16450;50.288;10.966;2022-10-23T18:00:28;14.70;99.90
29501;DHT22;16450;50.288;10.966;2022-10-23T18:03:29;14.70;99.90
29501;DHT22;16450;50.288;10.966;2022-10-23T18:06:35;14.70;99.90
29501;DHT22;16450;50.288;10.966;2022-10-23T18:09:36;14.70;99.90
29501;DHT22;16450;50.288;10.966;2022-10-23T18:12:37;14.70;99.90
29501;DHT22;16450;50.288;10.966;2022-10-23T18:15:37;14.60;99.90
29501;DHT22;16450;50.288;10.966;2022-10-23T18:18:40;14.60;99.90
29501;DHT22;16450;50.288;10.966;2022-10-23T18:21:41;14.60;99.90
29501;DHT22;16450;50.288;10.966;2022-10-23T18:24:41;14.60;99.90
29501;DHT22;16450;50.288;10.966;2022-10-23T18:27:42;14.60;99.90
29501;DHT22;16450;50.288;10.966;2022-10-23T18:30:42;14.60;99.90
29501;DHT22;16450;50.288;10.966;2022-10-23T18:33:43;14.60;99.90
29501;DHT22;16450;50.288;10.966;2022-10-23T18:36:44;14.60;99.90
29501;DHT22;16450;50.288;10.966;2022-10-23T18:39:45;14.60;99.90
29501;DHT22;16450;50.288;10.966;2022-10-23T18:42:46;14.60;99.90
29501;DHT22;16450;50.288;10.966;2022-10-23T18:45:47;14.60;99.90
29501;DHT22;16450;50.288;10.966;2022-10-23T18:48:48;14.60;99.90
29501;DHT22;16450;50.288;10.966;2022-10-23T18:51:52;14.60;99.90
29501;DHT22;16450;50.288;10.966;2022-10-23T18:54:52;14.60;99.90
29501;DHT22;16450;50.288;10.966;2022-10-23T18:57:53;14.60;99.90
29501;DHT22;16450;50.288;10.966;2022-10-23T19:00:54;14.60;99.90
29501;DHT22;16450;50.288;10.966;2022-10-23T19:03:56;14.60;99.90
29501;DHT22;16450;50.288;10.966;2022-10-23T19:06:57;14.60;99.90
29501;DHT22;16450;50.288;10.966;2022-10-23T19:09:58;14.60;99.90
29501;DHT22;16450;50.288;10.966;2022-10-23T19:12:59;14.60;99.90
29501;DHT22;16450;50.288;10.966;2022-10-23T19:15:59;14.60;99.90
29501;DHT22;16450;50.288;10.966;2022-10-23T19:19:04;14.60;99.90
29501;DHT22;16450;50.288;10.966;2022-10-23T19:22:07;14.60;99.90
29501;DHT22;16450;50.288;10.966;2022-10-23T19:25:30;14.60;99.90
29501;DHT22;16450;50.288;10.966;2022-10-23T19:28:31;14.60;99.90
29501;DHT22;16450;50.288;10.966;2022-10-23T19:31:33;14.60;99.90
29501;DHT22;16450;50.288;10.966;2022-10-23T19:34:34;14.60;99.90
29501;DHT22;16450;50.288;10.966;2022-10-23T19:37:34;14.60;99.90
29501;DHT22;16450;50.288;10.966;2022-10-23T19:40:35;14.50;99.90
29501;DHT22;16450;50.288;10.966;2022-10-23T19:43:36;14.50;99.90
29501;DHT22;16450;50.288;10.966;2022-10-23T19:46:39;14.50;99.90
29501;DHT22;16450;50.288;10.966;2022-10-23T19:49:40;14.50;99.90
29501;DHT22;16450;50.288;10.966;2022-10-23T19:52:40;14.50;99.90
29501;DHT22;16450;50.288;10.966;2022-10-23T19:55:41;14.40;99.90
29501;DHT22;16450;50.288;10.966;2022-10-23T19:58:41;14.40;99.90
29501;DHT22;16450;50.288;10.966;2022-10-23T20:01:42;14.40;99.90
29501;DHT22;16450;50.288;10.966;2022-10-23T20:04:43;14.30;99.90
29501;DHT22;16450;50.288;10.966;2022-10-23T20:07:43;14.20;99.90
29501;DHT22;16450;50.288;10.966;2022-10-23T20:10:47;14.20;99.90
29501;DHT22;16450;50.288;10.966;2022-10-23T20:13:49;14.10;99.90
29501;DHT22;16450;50.288;10.966;2022-10-23T20:16:49;14.00;99.90
29501;DHT22;16450;50.288;10.966;2022-10-23T20:19:51;14.00;99.90
29501;DHT22;16450;50.288;10.966;2022-10-23T20:22:52;13.90;99.90
29501;DHT22;16450;50.288;10.966;2022-10-23T20:25:52;13.90;99.90
29501;DHT22;16450;50.288;10.966;2022-10-23T20:28:54;13.90;99.90
29501;DHT22;16450;50.288;10.966;2022-10-23T20:31:55;13.90;99.90
29501;DHT22;16450;50.288;10.966;2022-10-23T20:34:55;13.90;99.90
29501;DHT22;16450;50.288;10.966;2022-10-23T20:37:56;13.90;99.90
29501;DHT22;16450;50.288;10.966;2022-10-23T20:40:57;13.90;99.90
29501;DHT22;16450;50.288;10.966;2022-10-23T20:43:59;13.80;99.90
29501;DHT22;16450;50.288;10.966;2022-10-23T20:47:00;13.90;99.90
29501;DHT22;16450;50.288;10.966;2022-10-23T20:50:01;13.80;99.90
29501;DHT22;16450;50.288;10.966;2022-10-23T20:53:01;13.80;99.90
29501;DHT22;16450;50.288;10.966;2022-10-23T20:56:07;13.80;99.90
29501;DHT22;16450;50.288;10.966;2022-10-23T20:59:14;13.80;99.90